Pond Creek, Oklahoma
Current Conditions -  °F | °C
As of 7:50 AM on Monday 26 Jan 2015 (Local Time) from KWDG Reporting Station
Clear Clear  
Wind Chill: 17°   Ceiling: Unl
Heat Index: 27°   Visibility: 10mi
Dew Point: 25°   Wind: 9mph
Humidity: 93%   Direction: 190°S
Pressure: 30.08"   Gusts: NA
Location:  36.67°N, 97.8°W
Report Text: KWDG 261350Z 19008KT 10SM SKC M03/M04 A3008
Loading
Personal Weather Stations






























Interactive Weather Map New forecast layout! Learn more

10-Day Weather Forecast

Advertisements
Track Severe Weather on mobile